createdAt,value
2023-03-23T00:00:18.681Z,955.89
2023-03-23T00:01:18.650Z,955.86
2023-03-23T00:02:18.621Z,955.88
2023-03-23T00:03:18.596Z,955.86
2023-03-23T00:04:18.568Z,955.89
2023-03-23T00:05:18.566Z,955.89
2023-03-23T00:06:18.522Z,955.88
2023-03-23T00:07:18.491Z,955.89
2023-03-23T00:08:18.461Z,955.97
2023-03-23T00:09:18.451Z,955.99
2023-03-23T00:10:18.408Z,956.00
2023-03-23T00:11:18.383Z,956.03
2023-03-23T00:12:18.357Z,956.04
2023-03-23T00:13:18.333Z,956.08
2023-03-23T00:14:18.303Z,956.09
2023-03-23T00:15:18.278Z,956.08
2023-03-23T00:16:18.251Z,956.08
2023-03-23T00:17:18.224Z,956.06
2023-03-23T00:18:18.197Z,956.09
2023-03-23T00:19:18.171Z,956.04
2023-03-23T00:20:18.143Z,956.05
2023-03-23T00:21:18.139Z,956.04
2023-03-23T00:22:18.102Z,956.05
2023-03-23T00:23:18.065Z,956.03
2023-03-23T00:24:18.043Z,956.05
2023-03-23T00:25:18.039Z,956.01
2023-03-23T00:26:17.988Z,956.01
2023-03-23T00:27:17.958Z,956.04
2023-03-23T00:28:17.930Z,955.98
2023-03-23T00:29:17.903Z,955.99
2023-03-23T00:30:17.892Z,956.02
2023-03-23T00:31:17.853Z,955.97
2023-03-23T00:32:17.829Z,955.96
2023-03-23T00:33:17.798Z,955.93
2023-03-23T00:34:17.772Z,955.91
2023-03-23T00:35:17.799Z,955.96
2023-03-23T00:36:17.720Z,955.99
2023-03-23T00:37:17.713Z,955.91
2023-03-23T00:38:17.676Z,955.91
2023-03-23T00:39:17.641Z,955.91
2023-03-23T00:40:17.613Z,955.94
2023-03-23T00:41:17.587Z,955.92
2023-03-23T00:42:17.560Z,955.92
2023-03-23T00:43:17.542Z,955.89
2023-03-23T00:44:17.506Z,955.88
2023-03-23T00:45:17.480Z,955.91
2023-03-23T00:46:17.453Z,955.91
2023-03-23T00:47:17.428Z,955.90
2023-03-23T00:48:17.398Z,955.91
2023-03-23T00:49:17.373Z,955.84
2023-03-23T00:50:19.790Z,955.86
2023-03-23T00:51:17.323Z,955.82
2023-03-23T00:52:17.293Z,955.80
2023-03-23T00:53:17.297Z,955.82
2023-03-23T00:54:17.236Z,955.81
2023-03-23T00:55:17.213Z,955.81
2023-03-23T00:56:17.186Z,955.78
2023-03-23T00:57:17.161Z,955.71
2023-03-23T00:58:17.132Z,955.72
2023-03-23T00:59:17.107Z,955.74
2023-03-23T01:00:17.081Z,955.74
2023-03-23T01:01:17.059Z,955.68
2023-03-23T01:02:17.026Z,955.65
2023-03-23T01:03:17.002Z,955.72
2023-03-23T01:04:16.981Z,955.79
2023-03-23T01:05:16.947Z,955.77
2023-03-23T01:06:16.925Z,955.73
2023-03-23T01:07:16.892Z,955.68
2023-03-23T01:08:16.862Z,955.70
2023-03-23T01:09:16.862Z,955.79
2023-03-23T01:10:16.812Z,955.78
2023-03-23T01:11:16.783Z,955.74
2023-03-23T01:12:16.756Z,955.68
2023-03-23T01:13:16.732Z,955.68
2023-03-23T01:14:16.701Z,955.68
2023-03-23T01:15:16.676Z,955.74
2023-03-23T01:16:16.656Z,955.75
2023-03-23T01:17:16.628Z,955.79
2023-03-23T01:18:16.623Z,955.80
2023-03-23T01:19:16.568Z,955.75
2023-03-23T01:20:16.540Z,955.74
2023-03-23T01:21:16.523Z,955.74
2023-03-23T01:22:16.504Z,955.75
2023-03-23T01:23:16.461Z,955.74
2023-03-23T01:24:16.437Z,955.72
2023-03-23T01:25:16.433Z,955.68
2023-03-23T01:26:16.386Z,955.70
2023-03-23T01:27:16.354Z,955.68
2023-03-23T01:28:16.330Z,955.59
2023-03-23T01:29:16.303Z,955.60
2023-03-23T01:30:16.278Z,955.62
2023-03-23T01:31:16.290Z,955.61
2023-03-23T01:32:16.219Z,955.60
2023-03-23T01:33:16.194Z,955.60
2023-03-23T01:34:16.164Z,955.58
2023-03-23T01:35:16.224Z,955.57
2023-03-23T01:36:16.113Z,955.53
2023-03-23T01:37:16.087Z,955.50
2023-03-23T01:38:16.060Z,955.52
2023-03-23T01:39:16.034Z,955.56
2023-03-23T01:40:16.012Z,955.57
2023-03-23T01:41:16.008Z,955.58
2023-03-23T01:42:15.954Z,955.59
2023-03-23T01:43:15.951Z,955.60
2023-03-23T01:44:15.901Z,955.61
2023-03-23T01:45:15.876Z,955.61
2023-03-23T01:46:15.849Z,955.59
2023-03-23T01:47:15.823Z,955.62
2023-03-23T01:48:15.793Z,955.66
2023-03-23T01:49:15.778Z,955.64
2023-03-23T01:50:15.759Z,955.70
2023-03-23T01:51:15.716Z,955.71
2023-03-23T01:52:15.688Z,955.72
2023-03-23T01:53:15.665Z,955.74
2023-03-23T01:54:15.635Z,955.74
2023-03-23T01:55:15.637Z,955.72
2023-03-23T01:56:15.597Z,955.81
2023-03-23T01:57:15.583Z,955.85
2023-03-23T01:58:15.530Z,955.86
2023-03-23T01:59:15.504Z,955.88
2023-03-23T02:00:15.476Z,955.89
2023-03-23T02:01:15.450Z,955.88
2023-03-23T02:02:15.423Z,955.81
2023-03-23T02:03:17.308Z,955.85
2023-03-23T02:04:15.370Z,955.82
2023-03-23T02:05:15.345Z,955.83
2023-03-23T02:06:15.315Z,955.82
2023-03-23T02:07:15.292Z,955.88
2023-03-23T02:08:15.264Z,955.88
2023-03-23T02:09:15.237Z,955.92
2023-03-23T02:10:15.211Z,955.98
2023-03-23T02:11:22.062Z,956.02
2023-03-23T02:12:15.154Z,956.06
2023-03-23T02:13:15.150Z,956.02
2023-03-23T02:14:15.102Z,956.05
2023-03-23T02:15:15.077Z,956.14
2023-03-23T02:16:15.053Z,956.09
2023-03-23T02:17:15.022Z,956.11
2023-03-23T02:18:15.003Z,956.09
2023-03-23T02:19:14.970Z,956.05
2023-03-23T02:20:14.945Z,955.99
2023-03-23T02:21:14.914Z,955.96
2023-03-23T02:22:14.895Z,955.89
2023-03-23T02:23:14.860Z,955.84
2023-03-23T02:24:14.877Z,955.77
2023-03-23T02:25:14.831Z,955.76
2023-03-23T02:26:14.781Z,955.69
2023-03-23T02:27:14.759Z,955.70
2023-03-23T02:28:14.724Z,955.73
2023-03-23T02:29:14.726Z,955.68
2023-03-23T02:30:14.675Z,955.72
2023-03-23T02:31:14.659Z,955.69
2023-03-23T02:32:14.625Z,955.67
2023-03-23T02:33:14.593Z,955.66
2023-03-23T02:34:14.579Z,955.64
2023-03-23T02:35:14.547Z,955.68
2023-03-23T02:36:14.513Z,955.68
2023-03-23T02:37:14.488Z,955.65
2023-03-23T02:38:14.460Z,955.58
2023-03-23T02:39:14.434Z,955.55
2023-03-23T02:40:14.408Z,955.61
2023-03-23T02:41:14.380Z,955.56
2023-03-23T02:42:15.635Z,955.51
2023-03-23T02:43:14.328Z,955.50
2023-03-23T02:44:14.299Z,955.48
2023-03-23T02:45:14.294Z,955.45
2023-03-23T02:46:14.245Z,955.44
2023-03-23T02:47:14.220Z,955.44
2023-03-23T02:48:14.191Z,955.45
2023-03-23T02:49:14.175Z,955.44
2023-03-23T02:50:14.138Z,955.42
2023-03-23T02:51:14.112Z,955.37
2023-03-23T02:52:14.092Z,955.37
2023-03-23T02:53:14.058Z,955.35
2023-03-23T02:54:14.031Z,955.36
2023-03-23T02:55:14.010Z,955.35
2023-03-23T02:56:13.975Z,955.33
2023-03-23T02:57:13.950Z,955.32
2023-03-23T02:58:13.924Z,955.33
2023-03-23T02:59:13.904Z,955.34
2023-03-23T03:00:13.869Z,955.36
2023-03-23T03:01:13.862Z,955.38
2023-03-23T03:02:13.816Z,955.37
2023-03-23T03:03:13.790Z,955.38
2023-03-23T03:04:13.760Z,955.41
2023-03-23T03:05:13.736Z,955.42
2023-03-23T03:06:13.720Z,955.43
2023-03-23T03:07:13.681Z,955.44
2023-03-23T03:08:13.653Z,955.43
2023-03-23T03:09:13.629Z,955.35
2023-03-23T03:10:17.281Z,955.33
2023-03-23T03:11:13.579Z,955.29
2023-03-23T03:12:13.549Z,955.21
2023-03-23T03:13:13.520Z,955.20
2023-03-23T03:14:13.491Z,955.18
2023-03-23T03:15:13.467Z,955.17
2023-03-23T03:16:13.438Z,955.19
2023-03-23T03:17:13.432Z,955.17
2023-03-23T03:18:13.388Z,955.18
2023-03-23T03:19:13.362Z,955.17
2023-03-23T03:20:13.356Z,955.17
2023-03-23T03:21:13.304Z,955.12
2023-03-23T03:22:13.280Z,955.15
2023-03-23T03:23:13.253Z,955.14
2023-03-23T03:24:13.230Z,955.12
2023-03-23T03:25:18.054Z,955.08
2023-03-23T03:26:13.183Z,955.01
2023-03-23T03:27:13.151Z,954.95
2023-03-23T03:28:13.118Z,954.99
2023-03-23T03:29:13.095Z,954.90
2023-03-23T03:30:13.066Z,954.90
2023-03-23T03:31:13.039Z,954.93
2023-03-23T03:32:13.012Z,954.97
2023-03-23T03:33:13.005Z,954.95
2023-03-23T03:34:12.959Z,955.03
2023-03-23T03:35:12.942Z,955.02
2023-03-23T03:36:12.945Z,955.07
2023-03-23T03:37:12.879Z,955.00
2023-03-23T03:38:12.852Z,954.96
2023-03-23T03:39:12.823Z,954.99
2023-03-23T03:40:12.802Z,954.99
2023-03-23T03:41:12.771Z,955.05
2023-03-23T03:42:12.749Z,955.09
2023-03-23T03:43:12.724Z,955.08
2023-03-23T03:44:12.690Z,955.12
2023-03-23T03:45:12.664Z,955.09
2023-03-23T03:46:12.672Z,955.10
2023-03-23T03:47:12.611Z,955.09
2023-03-23T03:48:12.586Z,955.01
2023-03-23T03:49:12.590Z,955.03
2023-03-23T03:50:12.530Z,955.02
2023-03-23T03:51:12.503Z,955.06
2023-03-23T03:52:12.477Z,955.04
2023-03-23T03:53:12.448Z,955.04
2023-03-23T03:54:12.425Z,955.05
2023-03-23T03:55:12.397Z,955.08
2023-03-23T03:56:12.374Z,955.08
2023-03-23T03:57:12.343Z,955.11
2023-03-23T03:58:12.315Z,955.08
2023-03-23T03:59:21.499Z,955.08
2023-03-23T04:00:12.262Z,955.05
2023-03-23T04:01:12.234Z,955.04
2023-03-23T04:02:12.213Z,955.06
2023-03-23T04:03:12.181Z,955.06
2023-03-23T04:04:12.160Z,955.07
2023-03-23T04:05:12.164Z,955.09
2023-03-23T04:06:12.103Z,955.07
2023-03-23T04:07:12.075Z,955.06
2023-03-23T04:08:12.048Z,955.06
2023-03-23T04:09:12.020Z,955.06
2023-03-23T04:10:12.001Z,955.04
2023-03-23T04:11:11.968Z,955.03
2023-03-23T04:12:11.942Z,955.02
2023-03-23T04:13:11.918Z,954.99
2023-03-23T04:14:11.891Z,955.00
2023-03-23T04:15:11.861Z,954.94
2023-03-23T04:16:11.837Z,954.92
2023-03-23T04:17:11.807Z,954.91
2023-03-23T04:18:11.783Z,954.93
2023-03-23T04:19:12.017Z,954.91
2023-03-23T04:20:11.728Z,954.93
2023-03-23T04:21:11.720Z,954.93
2023-03-23T04:22:11.674Z,954.92
2023-03-23T04:23:11.647Z,954.94
2023-03-23T04:24:23.375Z,954.96
2023-03-23T04:25:11.599Z,954.96
2023-03-23T04:26:11.568Z,954.92
2023-03-23T04:27:11.541Z,954.98
2023-03-23T04:28:11.513Z,954.95
2023-03-23T04:29:11.490Z,954.96
2023-03-23T04:30:11.461Z,954.93
2023-03-23T04:31:11.458Z,954.99
2023-03-23T04:32:11.413Z,954.99
2023-03-23T04:33:11.382Z,954.97
2023-03-23T04:34:11.352Z,954.99
2023-03-23T04:35:12.858Z,954.94
2023-03-23T04:36:11.316Z,954.94
2023-03-23T04:37:11.292Z,954.97
2023-03-23T04:38:11.250Z,954.94
2023-03-23T04:39:11.221Z,954.98
2023-03-23T04:40:11.199Z,954.94
2023-03-23T04:41:11.168Z,954.92
2023-03-23T04:42:11.141Z,954.98
2023-03-23T04:43:11.114Z,954.91
2023-03-23T04:44:11.092Z,954.96
2023-03-23T04:45:11.063Z,954.94
2023-03-23T04:46:11.039Z,954.94
2023-03-23T04:47:11.008Z,954.95
2023-03-23T04:48:10.981Z,954.94
2023-03-23T04:49:11.004Z,954.95
2023-03-23T04:50:10.929Z,954.95
2023-03-23T04:51:10.907Z,954.94
2023-03-23T04:52:10.874Z,954.99
2023-03-23T04:53:10.867Z,954.97
2023-03-23T04:54:10.824Z,954.93
2023-03-23T04:55:10.797Z,954.97
2023-03-23T04:56:10.770Z,954.98
2023-03-23T04:57:10.742Z,955.00
2023-03-23T04:58:10.715Z,955.02
2023-03-23T04:59:10.688Z,955.04
2023-03-23T05:00:10.662Z,955.04
2023-03-23T05:01:10.635Z,955.01
2023-03-23T05:02:14.593Z,955.01
2023-03-23T05:03:10.584Z,955.01
2023-03-23T05:04:10.554Z,955.00
2023-03-23T05:05:10.534Z,954.93
2023-03-23T05:06:10.501Z,954.93
2023-03-23T05:07:10.474Z,954.90
2023-03-23T05:08:10.447Z,954.90
2023-03-23T05:09:10.440Z,954.92
2023-03-23T05:10:10.393Z,954.89
2023-03-23T05:11:10.367Z,954.91
2023-03-23T05:12:10.341Z,954.91
2023-03-23T05:13:10.313Z,954.88
2023-03-23T05:14:10.290Z,954.91
2023-03-23T05:15:10.259Z,954.89
2023-03-23T05:16:10.233Z,954.92
2023-03-23T05:17:10.205Z,954.98
2023-03-23T05:18:10.180Z,955.00
2023-03-23T05:19:10.251Z,955.08
2023-03-23T05:20:10.126Z,955.07
2023-03-23T05:21:10.099Z,955.11
2023-03-23T05:22:10.074Z,955.10
2023-03-23T05:23:10.047Z,955.11
2023-03-23T05:24:10.037Z,955.11
2023-03-23T05:25:10.014Z,955.13
2023-03-23T05:26:09.969Z,955.16
2023-03-23T05:27:09.939Z,955.14
2023-03-23T05:28:09.916Z,955.13
2023-03-23T05:29:09.888Z,955.13
2023-03-23T05:30:09.859Z,955.12
2023-03-23T05:31:09.832Z,955.10
2023-03-23T05:32:09.806Z,955.14
2023-03-23T05:33:09.780Z,955.16
2023-03-23T05:34:09.753Z,955.18
2023-03-23T05:35:09.725Z,955.18
2023-03-23T05:36:09.720Z,955.20
2023-03-23T05:37:11.082Z,955.21
2023-03-23T05:38:09.654Z,955.21
2023-03-23T05:39:09.618Z,955.22
2023-03-23T05:40:09.589Z,955.19
2023-03-23T05:41:09.584Z,955.21
2023-03-23T05:42:09.539Z,955.21
2023-03-23T05:43:09.511Z,955.17
2023-03-23T05:44:09.483Z,955.19
2023-03-23T05:45:09.459Z,955.16
2023-03-23T05:46:09.432Z,955.21
2023-03-23T05:47:09.404Z,955.19
2023-03-23T05:48:09.378Z,955.20
2023-03-23T05:49:09.353Z,955.19
2023-03-23T05:50:09.328Z,955.22
2023-03-23T05:51:09.296Z,955.24
2023-03-23T05:52:09.270Z,955.26
2023-03-23T05:53:09.250Z,955.29
2023-03-23T05:54:09.217Z,955.30
2023-03-23T05:55:09.189Z,955.31
2023-03-23T05:56:09.167Z,955.32
2023-03-23T05:57:09.157Z,955.33
2023-03-23T05:58:09.111Z,955.34
2023-03-23T05:59:09.086Z,955.36
2023-03-23T06:00:09.058Z,955.36
2023-03-23T06:01:09.031Z,955.37
2023-03-23T06:02:09.005Z,955.41
2023-03-23T06:03:08.993Z,955.41
2023-03-23T06:04:08.952Z,955.41
2023-03-23T06:05:08.924Z,955.43
2023-03-23T06:06:08.904Z,955.41
2023-03-23T06:07:08.872Z,955.37
2023-03-23T06:08:08.845Z,955.39
2023-03-23T06:09:08.817Z,955.39
2023-03-23T06:10:08.795Z,955.37
2023-03-23T06:11:08.765Z,955.37
2023-03-23T06:12:08.741Z,955.37
2023-03-23T06:13:08.732Z,955.35
2023-03-23T06:14:08.695Z,955.30
2023-03-23T06:15:08.665Z,955.34
2023-03-23T06:16:08.632Z,955.31
2023-03-23T06:17:08.607Z,955.34
2023-03-23T06:18:08.582Z,955.30
2023-03-23T06:19:08.553Z,955.34
2023-03-23T06:20:08.532Z,955.34
2023-03-23T06:21:08.554Z,955.35
2023-03-23T06:22:08.475Z,955.41
2023-03-23T06:23:08.450Z,955.37
2023-03-23T06:24:08.423Z,955.47
2023-03-23T06:25:08.394Z,955.45
2023-03-23T06:26:08.371Z,955.45
2023-03-23T06:27:08.346Z,955.47
2023-03-23T06:28:08.322Z,955.44
2023-03-23T06:29:08.310Z,955.43
2023-03-23T06:30:08.266Z,955.44
2023-03-23T06:31:08.257Z,955.45
2023-03-23T06:32:08.211Z,955.47
2023-03-23T06:33:08.184Z,955.49
2023-03-23T06:34:08.170Z,955.46
2023-03-23T06:35:08.144Z,955.46
2023-03-23T06:36:08.132Z,955.45
2023-03-23T06:37:08.082Z,955.46
2023-03-23T06:38:08.058Z,955.41
2023-03-23T06:39:08.028Z,955.42
2023-03-23T06:40:08.003Z,955.43
2023-03-23T06:41:07.976Z,955.45
2023-03-23T06:42:07.958Z,955.48
2023-03-23T06:43:07.929Z,955.48
2023-03-23T06:44:07.899Z,955.48
2023-03-23T06:45:07.892Z,955.48
2023-03-23T06:46:07.845Z,955.46
2023-03-23T06:47:07.820Z,955.41
2023-03-23T06:48:07.797Z,955.37
2023-03-23T06:49:07.770Z,955.36
2023-03-23T06:50:07.746Z,955.36
2023-03-23T06:51:07.722Z,955.37
2023-03-23T06:52:07.693Z,955.45
2023-03-23T06:53:07.666Z,955.44
2023-03-23T06:54:07.640Z,955.46
2023-03-23T06:55:07.614Z,955.50
2023-03-23T06:56:07.591Z,955.45
2023-03-23T06:57:07.562Z,955.47
2023-03-23T06:58:07.539Z,955.50
2023-03-23T06:59:07.513Z,955.49
2023-03-23T07:00:09.433Z,955.49
2023-03-23T07:01:07.483Z,955.42
2023-03-23T07:02:07.434Z,955.45
2023-03-23T07:03:07.413Z,955.49
2023-03-23T07:04:07.384Z,955.45
2023-03-23T07:05:07.354Z,955.52
2023-03-23T07:06:08.205Z,955.55
2023-03-23T07:07:07.304Z,955.55
2023-03-23T07:08:07.279Z,955.56
2023-03-23T07:09:07.253Z,955.58
2023-03-23T07:10:07.238Z,955.61
2023-03-23T07:11:07.201Z,955.56
2023-03-23T07:12:07.177Z,955.59
2023-03-23T07:13:07.149Z,955.64
2023-03-23T07:14:07.126Z,955.63
2023-03-23T07:15:07.098Z,955.69
2023-03-23T07:16:07.094Z,955.60
2023-03-23T07:17:07.080Z,955.65
2023-03-23T07:18:07.025Z,955.64
2023-03-23T07:19:06.995Z,955.63
2023-03-23T07:20:06.977Z,955.61
2023-03-23T07:21:06.952Z,955.59
2023-03-23T07:22:06.924Z,955.63
2023-03-23T07:23:06.896Z,955.60
2023-03-23T07:24:06.874Z,955.58
2023-03-23T07:25:06.852Z,955.60
2023-03-23T07:26:06.825Z,955.60
2023-03-23T07:27:06.804Z,955.64
2023-03-23T07:28:06.904Z,955.64
2023-03-23T07:29:06.746Z,955.62
2023-03-23T07:30:06.725Z,955.61
2023-03-23T07:31:06.696Z,955.63
2023-03-23T07:32:06.689Z,955.61
2023-03-23T07:33:06.665Z,955.62
2023-03-23T07:34:06.622Z,955.65
2023-03-23T07:35:07.249Z,955.68
2023-03-23T07:36:06.610Z,955.71
2023-03-23T07:37:06.545Z,955.74
2023-03-23T07:38:06.519Z,955.79
2023-03-23T07:39:06.496Z,955.81
2023-03-23T07:40:06.475Z,955.82
2023-03-23T07:41:06.444Z,955.84
2023-03-23T07:42:06.419Z,955.89
2023-03-23T07:43:06.397Z,955.86
2023-03-23T07:44:06.369Z,955.88
2023-03-23T07:45:06.342Z,955.89
2023-03-23T07:46:06.326Z,955.87
2023-03-23T07:47:06.295Z,955.86
2023-03-23T07:48:12.731Z,955.89
2023-03-23T07:49:06.266Z,955.90
2023-03-23T07:50:06.226Z,955.91
2023-03-23T07:51:06.196Z,955.91
2023-03-23T07:52:06.170Z,955.88
2023-03-23T07:53:06.143Z,955.88
2023-03-23T07:54:06.713Z,955.90
2023-03-23T07:55:06.096Z,955.87
2023-03-23T07:56:06.081Z,955.86
2023-03-23T07:57:06.048Z,955.83
2023-03-23T07:58:06.020Z,955.85
2023-03-23T07:59:06.260Z,955.86
2023-03-23T08:00:05.976Z,955.84
2023-03-23T08:01:05.946Z,955.80
2023-03-23T08:02:05.923Z,955.85
2023-03-23T08:03:05.894Z,955.81
2023-03-23T08:04:05.873Z,955.85
2023-03-23T08:05:05.866Z,955.83
2023-03-23T08:06:05.825Z,955.81
2023-03-23T08:07:05.798Z,955.85
2023-03-23T08:08:05.775Z,955.87
2023-03-23T08:09:05.748Z,955.87
2023-03-23T08:10:05.725Z,955.89
2023-03-23T08:11:05.699Z,955.89
2023-03-23T08:12:05.671Z,955.88
2023-03-23T08:13:05.648Z,955.88
2023-03-23T08:14:05.622Z,955.90
2023-03-23T08:15:05.598Z,955.87
2023-03-23T08:16:05.573Z,955.86
2023-03-23T08:17:05.548Z,955.89
2023-03-23T08:18:05.525Z,955.93
2023-03-23T08:19:08.488Z,955.94
2023-03-23T08:20:05.473Z,955.99
2023-03-23T08:21:05.471Z,955.93
2023-03-23T08:22:05.422Z,955.94
2023-03-23T08:23:05.401Z,955.92
2023-03-23T08:24:05.380Z,955.96
2023-03-23T08:25:05.351Z,956.01
2023-03-23T08:26:05.324Z,955.94
2023-03-23T08:27:05.300Z,955.96
2023-03-23T08:28:05.283Z,955.96
2023-03-23T08:29:05.249Z,955.95
2023-03-23T08:30:05.227Z,955.97
2023-03-23T08:31:05.201Z,955.91
2023-03-23T08:32:05.177Z,955.91
2023-03-23T08:33:05.150Z,955.89
2023-03-23T08:34:05.127Z,955.91
2023-03-23T08:35:05.107Z,955.87
2023-03-23T08:36:05.127Z,955.91
2023-03-23T08:37:05.078Z,955.92
2023-03-23T08:38:05.026Z,955.92
2023-03-23T08:39:05.004Z,955.92
2023-03-23T08:40:05.012Z,955.95
2023-03-23T08:41:04.961Z,955.96
2023-03-23T08:42:04.933Z,955.93
2023-03-23T08:43:04.905Z,955.95
2023-03-23T08:44:04.878Z,955.96
2023-03-23T08:45:04.855Z,955.96
2023-03-23T08:46:04.844Z,955.95
2023-03-23T08:47:04.807Z,955.96
2023-03-23T08:48:04.790Z,955.92
2023-03-23T08:49:04.760Z,955.96
2023-03-23T08:50:04.737Z,955.99
2023-03-23T08:51:04.711Z,955.98
2023-03-23T08:52:04.686Z,956.00
2023-03-23T08:53:04.685Z,956.07
2023-03-23T08:54:04.637Z,956.05
2023-03-23T08:55:04.615Z,956.14
2023-03-23T08:56:04.588Z,956.10
2023-03-23T08:57:04.567Z,956.12
2023-03-23T08:58:04.541Z,956.12
2023-03-23T08:59:04.520Z,956.14
2023-03-23T09:00:04.492Z,956.16
2023-03-23T09:01:04.471Z,956.15
2023-03-23T09:02:04.445Z,956.16
2023-03-23T09:03:04.426Z,956.14
2023-03-23T09:04:04.397Z,956.14
2023-03-23T09:05:04.376Z,956.15
2023-03-23T09:06:04.347Z,956.16
2023-03-23T09:07:04.338Z,956.17
2023-03-23T09:08:04.300Z,956.20
2023-03-23T09:09:04.334Z,956.22
2023-03-23T09:10:04.265Z,956.26
2023-03-23T09:11:04.228Z,956.28
2023-03-23T09:12:04.204Z,956.26
2023-03-23T09:13:04.183Z,956.30
2023-03-23T09:14:04.154Z,956.31
2023-03-23T09:15:04.133Z,956.31
2023-03-23T09:16:04.112Z,956.30
2023-03-23T09:17:04.097Z,956.29
2023-03-23T09:18:04.059Z,956.27
2023-03-23T09:19:04.036Z,956.30
2023-03-23T09:20:04.012Z,956.29
2023-03-23T09:21:03.988Z,956.29
2023-03-23T09:22:03.971Z,956.29
2023-03-23T09:23:03.940Z,956.31
2023-03-23T09:24:03.915Z,956.32
2023-03-23T09:25:05.013Z,956.37
2023-03-23T09:26:03.868Z,956.40
2023-03-23T09:27:03.845Z,956.42
2023-03-23T09:28:03.819Z,956.43
2023-03-23T09:29:03.797Z,956.44
2023-03-23T09:30:03.776Z,956.41
2023-03-23T09:31:03.750Z,956.37
2023-03-23T09:32:03.729Z,956.41
2023-03-23T09:33:03.703Z,956.37
2023-03-23T09:34:03.678Z,956.42
2023-03-23T09:35:03.652Z,956.44
2023-03-23T09:36:03.684Z,956.40
2023-03-23T09:37:03.604Z,956.46
2023-03-23T09:38:03.579Z,956.46
2023-03-23T09:39:03.565Z,956.49
2023-03-23T09:40:06.807Z,956.49
2023-03-23T09:41:03.545Z,956.50
2023-03-23T09:42:03.483Z,956.52
2023-03-23T09:43:03.461Z,956.56
2023-03-23T09:44:03.438Z,956.54
2023-03-23T09:45:03.416Z,956.51
2023-03-23T09:46:03.387Z,956.56
2023-03-23T09:47:03.367Z,956.59
2023-03-23T09:48:03.340Z,956.60
2023-03-23T09:49:03.324Z,956.58
2023-03-23T09:50:03.291Z,956.53
2023-03-23T09:51:03.269Z,956.56
2023-03-23T09:52:03.241Z,956.60
2023-03-23T09:53:03.216Z,956.55
2023-03-23T09:54:03.201Z,956.56
2023-03-23T09:55:03.174Z,956.59
2023-03-23T09:56:03.146Z,956.64
2023-03-23T09:57:03.140Z,956.68
2023-03-23T09:58:03.098Z,956.68
2023-03-23T09:59:03.076Z,956.72
2023-03-23T10:00:03.050Z,956.72
2023-03-23T10:01:03.052Z,956.74
2023-03-23T10:02:03.002Z,956.79
2023-03-23T10:03:02.986Z,956.79
2023-03-23T10:04:02.957Z,956.83
2023-03-23T10:05:02.932Z,956.85
2023-03-23T10:06:02.906Z,956.83
2023-03-23T10:07:02.884Z,956.90
2023-03-23T10:08:02.859Z,956.90
2023-03-23T10:09:02.836Z,956.94
2023-03-23T10:10:02.813Z,956.91
2023-03-23T10:11:02.806Z,956.88
2023-03-23T10:12:02.777Z,956.90
2023-03-23T10:13:02.758Z,956.92
2023-03-23T10:14:02.715Z,956.86
2023-03-23T10:15:02.692Z,956.84
2023-03-23T10:16:02.666Z,956.79
2023-03-23T10:17:02.659Z,956.77
2023-03-23T10:18:02.618Z,956.78
2023-03-23T10:19:02.595Z,956.80
2023-03-23T10:20:02.577Z,956.82
2023-03-23T10:21:02.550Z,956.86
2023-03-23T10:22:02.524Z,956.87
2023-03-23T10:23:02.503Z,956.83
2023-03-23T10:24:02.473Z,956.80
2023-03-23T10:25:02.456Z,956.79
2023-03-23T10:26:02.425Z,956.83
2023-03-23T10:27:02.403Z,956.80
2023-03-23T10:28:02.380Z,956.79
2023-03-23T10:29:02.380Z,956.79
2023-03-23T10:30:02.334Z,956.83
2023-03-23T10:31:02.307Z,956.80
2023-03-23T10:32:02.282Z,956.80
2023-03-23T10:33:02.261Z,956.78
2023-03-23T10:34:02.236Z,956.73
2023-03-23T10:35:02.222Z,956.75
2023-03-23T10:36:02.209Z,956.73
2023-03-23T10:37:02.164Z,956.71
2023-03-23T10:38:02.136Z,956.67
2023-03-23T10:39:02.113Z,956.67
2023-03-23T10:40:02.088Z,956.64
2023-03-23T10:41:02.068Z,956.68
2023-03-23T10:42:02.041Z,956.63
2023-03-23T10:43:02.017Z,956.69
2023-03-23T10:44:01.992Z,956.64
2023-03-23T10:45:01.989Z,956.65
2023-03-23T10:46:02.236Z,956.62
2023-03-23T10:47:01.924Z,956.61
2023-03-23T10:48:01.898Z,956.60
2023-03-23T10:49:01.880Z,956.62
2023-03-23T10:50:01.848Z,956.64
2023-03-23T10:51:01.827Z,956.67
2023-03-23T10:52:01.800Z,956.70
2023-03-23T10:53:01.778Z,956.68
2023-03-23T10:54:01.754Z,956.68
2023-03-23T10:55:01.735Z,956.70
2023-03-23T10:56:01.715Z,956.67
2023-03-23T10:57:03.841Z,956.60
2023-03-23T10:58:01.696Z,956.62
2023-03-23T10:59:01.636Z,956.64
2023-03-23T11:00:01.611Z,956.61
2023-03-23T11:01:01.609Z,956.62
2023-03-23T11:02:01.571Z,956.64
2023-03-23T11:03:01.547Z,956.64
2023-03-23T11:04:01.514Z,956.64
2023-03-23T11:05:07.884Z,956.61
2023-03-23T11:06:01.469Z,956.65
2023-03-23T11:07:01.446Z,956.64
2023-03-23T11:08:01.420Z,956.59
2023-03-23T11:09:01.399Z,956.60
2023-03-23T11:10:01.377Z,956.60
2023-03-23T11:11:01.352Z,956.56
2023-03-23T11:12:02.317Z,956.54
2023-03-23T11:13:01.309Z,956.56
2023-03-23T11:14:01.280Z,956.66
2023-03-23T11:15:01.259Z,956.65
2023-03-23T11:16:01.237Z,956.69
2023-03-23T11:17:07.072Z,956.68
2023-03-23T11:18:01.196Z,956.67
2023-03-23T11:19:01.166Z,956.64
2023-03-23T11:20:01.141Z,956.67
2023-03-23T11:21:01.120Z,956.66
2023-03-23T11:22:01.096Z,956.60
2023-03-23T11:23:01.085Z,956.60
2023-03-23T11:24:09.728Z,956.62
2023-03-23T11:25:01.028Z,956.68
2023-03-23T11:26:01.009Z,956.65
2023-03-23T11:27:00.988Z,956.62
2023-03-23T11:28:00.964Z,956.58
2023-03-23T11:29:00.938Z,956.51
2023-03-23T11:30:00.918Z,956.56
2023-03-23T11:31:00.894Z,956.57
2023-03-23T11:32:00.870Z,956.55
2023-03-23T11:33:00.875Z,956.58
2023-03-23T11:34:06.242Z,956.55
2023-03-23T11:35:13.812Z,956.53
2023-03-23T11:36:00.822Z,956.59
2023-03-23T11:37:00.779Z,956.61
2023-03-23T11:38:00.735Z,956.63
2023-03-23T11:39:00.713Z,956.67
2023-03-23T11:40:00.691Z,956.71
2023-03-23T11:41:00.667Z,956.71
2023-03-23T11:42:09.016Z,956.76
2023-03-23T11:43:00.627Z,956.76
2023-03-23T11:44:00.599Z,956.73
2023-03-23T11:45:00.586Z,956.74
2023-03-23T11:46:00.564Z,956.68
2023-03-23T11:47:00.533Z,956.62
2023-03-23T11:48:00.508Z,956.61
2023-03-23T11:49:00.519Z,956.60
2023-03-23T11:50:00.463Z,956.58
2023-03-23T11:51:00.442Z,956.56
2023-03-23T11:52:00.421Z,956.53
2023-03-23T11:53:00.401Z,956.52
2023-03-23T11:54:00.374Z,956.51
2023-03-23T11:55:00.355Z,956.50
2023-03-23T11:56:00.365Z,956.46
2023-03-23T11:57:00.309Z,956.47
2023-03-23T11:58:00.286Z,956.43
2023-03-23T11:59:00.265Z,956.37
2023-03-23T12:00:00.241Z,956.34
2023-03-23T12:01:00.227Z,956.37
2023-03-23T12:02:11.632Z,956.32
2023-03-23T12:03:00.182Z,956.33
2023-03-23T12:04:00.151Z,956.33
2023-03-23T12:05:00.188Z,956.33
2023-03-23T12:06:00.122Z,956.33
2023-03-23T12:07:00.104Z,956.30
2023-03-23T12:08:00.070Z,956.32
2023-03-23T12:09:00.047Z,956.31
2023-03-23T12:10:00.027Z,956.29
2023-03-23T12:11:01.791Z,956.33
2023-03-23T12:11:59.979Z,956.39
2023-03-23T12:12:59.957Z,956.38
2023-03-23T12:13:59.938Z,956.34
2023-03-23T12:14:59.989Z,956.34
2023-03-23T12:15:59.893Z,956.33
2023-03-23T12:16:59.870Z,956.36
2023-03-23T12:17:59.853Z,956.33
2023-03-23T12:18:59.830Z,956.33
2023-03-23T12:19:59.807Z,956.33
2023-03-23T12:20:59.805Z,956.28
2023-03-23T12:21:59.763Z,956.29
2023-03-23T12:22:59.744Z,956.29
2023-03-23T12:24:01.456Z,956.28
2023-03-23T12:24:59.697Z,956.22
2023-03-23T12:25:59.677Z,956.25
2023-03-23T12:26:59.655Z,956.22
2023-03-23T12:27:59.635Z,956.21